La Habra Heights, California
Current Conditions -  °F | °C
As of 12:53 PM on Friday 31 Oct 2014 (Local Time) from KFUL Reporting Station
Overcast Overcast  
Wind Chill: 22°   Ceiling: 4500
Heat Index: 22°   Visibility: 10mi
Dew Point: 13°   Wind: 5mph
Humidity: 55%   Direction: 210°SSW
Pressure: 29.91"   Gusts: NA
Location:  33.9421°N, 117.951°W
Report Text: KFUL 311953Z 21004KT 10SM OVC045 22/13 A2991 RMK AO2 SLP126 T02220128
Loading
Personal Weather Stations






























Interactive Weather Map
Tropical Storm Tracking
New forecast layout! Learn more

10-Day Weather Forecast

Advertisements
Track Severe Weather on mobile